createdAt,value
2023-09-08T00:04:40.782Z,1.60
2023-09-08T00:09:42.793Z,1.80
2023-09-08T00:14:44.866Z,1.83
2023-09-08T00:19:47.018Z,1.40
2023-09-08T00:24:49.149Z,1.67
2023-09-08T00:29:51.218Z,2.00
2023-09-08T00:34:53.182Z,1.60
2023-09-08T00:39:55.152Z,1.73
2023-09-08T00:44:57.126Z,1.52
2023-09-08T00:49:59.155Z,1.70
2023-09-08T00:55:01.294Z,1.70
2023-09-08T01:00:03.612Z,2.10
2023-09-08T01:05:07.486Z,1.63
2023-09-08T01:10:09.752Z,1.70
2023-09-08T01:15:11.908Z,1.90
2023-09-08T01:20:22.086Z,1.52
2023-09-08T01:25:28.174Z,1.60
2023-09-08T01:30:30.514Z,1.50
2023-09-08T01:35:32.584Z,1.90
2023-09-08T01:40:34.592Z,1.88
2023-09-08T01:45:36.641Z,1.70
2023-09-08T01:50:38.713Z,1.80
2023-09-08T01:55:40.708Z,1.83
2023-09-08T02:00:42.752Z,2.22
2023-09-08T02:05:45.886Z,1.70
2023-09-08T02:10:48.005Z,1.50
2023-09-08T02:15:50.201Z,1.70
2023-09-08T02:20:52.427Z,1.92
2023-09-08T02:25:54.464Z,1.88
2023-09-08T02:30:56.530Z,1.55
2023-09-08T02:36:05.624Z,1.85
2023-09-08T02:41:07.690Z,1.90
2023-09-08T02:46:09.758Z,2.30
2023-09-08T02:51:11.816Z,2.13
2023-09-08T02:56:13.923Z,1.80
2023-09-08T03:01:17.076Z,1.88
2023-09-08T03:06:20.222Z,1.80
2023-09-08T03:11:22.225Z,2.00
2023-09-08T03:16:24.270Z,2.33
2023-09-08T03:21:26.485Z,1.98
2023-09-08T03:26:28.620Z,1.70
2023-09-08T03:31:30.812Z,1.60
2023-09-08T03:36:32.987Z,1.58
2023-09-08T03:41:35.104Z,2.20
2023-09-08T03:46:37.766Z,1.90
2023-09-08T03:51:39.961Z,2.00
2023-09-08T03:56:42.133Z,1.77
2023-09-08T04:01:44.140Z,1.65
2023-09-08T04:06:46.243Z,1.70
2023-09-08T04:11:48.381Z,1.80
2023-09-08T04:16:50.519Z,2.40
2023-09-08T04:21:52.576Z,1.75
2023-09-08T04:26:54.722Z,1.50
2023-09-08T04:31:56.827Z,1.77
2023-09-08T04:36:58.988Z,1.83
2023-09-08T04:42:01.230Z,1.60
2023-09-08T04:52:05.357Z,1.50
2023-09-08T05:02:24.398Z,1.77
2023-09-08T05:07:26.507Z,1.50
2023-09-08T05:12:28.494Z,1.60
2023-09-08T05:17:30.782Z,1.40
2023-09-08T05:22:32.814Z,1.40
2023-09-08T05:27:34.966Z,1.38
2023-09-08T05:32:37.243Z,1.55
2023-09-08T05:37:39.300Z,1.40
2023-09-08T05:42:43.052Z,1.15
2023-09-08T05:47:46.669Z,1.30
2023-09-08T05:52:48.753Z,1.30
2023-09-08T05:57:50.693Z,1.48
2023-09-08T06:02:52.727Z,1.50
2023-09-08T06:08:06.449Z,1.45
2023-09-08T06:13:09.292Z,1.50
2023-09-08T06:18:12.553Z,2.50
2023-09-08T06:23:15.319Z,1.40
2023-09-08T06:28:17.274Z,1.45
2023-09-08T06:33:19.391Z,1.77
2023-09-08T06:43:23.137Z,4.45
2023-09-08T06:48:25.104Z,1.48
2023-09-08T06:53:27.165Z,1.63
2023-09-08T07:03:31.082Z,1.30
2023-09-08T07:08:33.289Z,1.30
2023-09-08T07:13:35.503Z,1.02
2023-09-08T07:18:37.903Z,1.15
2023-09-08T07:23:40.202Z,1.40
2023-09-08T07:28:42.187Z,1.30
2023-09-08T07:33:44.228Z,1.00
2023-09-08T07:38:46.322Z,1.10
2023-09-08T07:43:49.827Z,1.20
2023-09-08T07:48:51.937Z,1.10
2023-09-08T07:53:57.022Z,1.10
2023-09-08T07:58:59.149Z,1.40
2023-09-08T08:04:01.231Z,1.30
2023-09-08T08:14:05.740Z,1.40
2023-09-08T08:19:07.734Z,1.40
2023-09-08T08:29:11.887Z,1.27
2023-09-08T08:39:15.476Z,1.60
2023-09-08T08:44:17.968Z,1.30
2023-09-08T08:49:19.950Z,1.30
2023-09-08T08:54:21.902Z,1.40
2023-09-08T08:59:24.235Z,1.50
2023-09-08T09:04:26.633Z,1.38
2023-09-08T09:09:28.598Z,1.40
2023-09-08T09:14:34.335Z,1.40
2023-09-08T09:19:36.312Z,1.38
2023-09-08T09:24:41.852Z,1.50
2023-09-08T09:29:49.960Z,1.50
2023-09-08T09:34:53.440Z,1.25
2023-09-08T09:39:56.136Z,1.45
2023-09-08T09:44:58.096Z,1.40
2023-09-08T09:50:00.186Z,1.30
2023-09-08T09:55:02.194Z,1.80
2023-09-08T10:00:06.053Z,1.60
2023-09-08T10:05:14.664Z,1.70
2023-09-08T10:10:17.112Z,1.50
2023-09-08T10:15:21.093Z,1.50
2023-09-08T10:20:24.522Z,1.60
2023-09-08T10:25:26.560Z,1.52
2023-09-08T10:30:28.518Z,1.30
2023-09-08T10:35:30.524Z,1.40
2023-09-08T10:40:32.611Z,1.25
2023-09-08T10:45:34.576Z,1.42
2023-09-08T10:55:41.648Z,1.30
2023-09-08T11:00:45.196Z,1.77
2023-09-08T11:05:47.670Z,1.60
2023-09-08T11:10:50.034Z,1.10
2023-09-08T11:15:55.832Z,1.10
2023-09-08T11:20:58.301Z,1.50
2023-09-08T11:26:00.732Z,1.20
2023-09-08T11:31:02.786Z,1.08
2023-09-08T11:36:12.652Z,1.40
2023-09-08T11:41:14.665Z,1.30
2023-09-08T11:46:16.869Z,1.30
2023-09-08T11:51:23.633Z,1.20
2023-09-08T11:56:26.237Z,1.40
2023-09-08T12:01:28.278Z,1.40
2023-09-08T12:06:30.583Z,2.00
2023-09-08T12:11:36.050Z,1.40
2023-09-08T12:16:38.181Z,1.40
2023-09-08T12:22:00.211Z,1.40
2023-09-08T12:27:04.511Z,1.08
2023-09-08T12:32:06.710Z,1.73
2023-09-08T12:42:10.614Z,1.20
2023-09-08T12:47:12.829Z,1.20
2023-09-08T12:52:14.991Z,1.30
2023-09-08T13:02:18.915Z,1.55
2023-09-08T13:07:21.382Z,1.60
2023-09-08T13:12:23.415Z,1.55
2023-09-08T13:17:25.456Z,1.58
2023-09-08T13:22:27.563Z,1.30
2023-09-08T13:27:29.543Z,1.17
2023-09-08T13:32:31.729Z,0.90
2023-09-08T13:37:33.873Z,1.40
2023-09-08T13:42:36.104Z,1.10
2023-09-08T13:52:43.769Z,1.40
2023-09-08T13:57:48.786Z,1.40
2023-09-08T14:02:53.197Z,1.20
2023-09-08T14:08:06.934Z,1.20
2023-09-08T14:13:10.862Z,1.23
2023-09-08T14:18:13.210Z,1.20
2023-09-08T14:28:16.818Z,1.40
2023-09-08T14:33:18.984Z,1.42
2023-09-08T14:38:21.633Z,1.50
2023-09-08T14:43:24.027Z,1.65
2023-09-08T14:53:28.259Z,1.92
2023-09-08T14:58:30.780Z,1.92
2023-09-08T15:03:33.173Z,1.60
2023-09-08T15:08:35.358Z,1.85
2023-09-08T15:13:37.948Z,2.00
2023-09-08T15:18:40.287Z,2.20
2023-09-08T15:23:42.320Z,2.00
2023-09-08T15:28:44.534Z,2.28
2023-09-08T15:33:46.752Z,2.45
2023-09-08T15:38:49.032Z,1.92
2023-09-08T15:43:51.897Z,2.08
2023-09-08T15:48:54.046Z,2.35
2023-09-08T15:53:56.107Z,2.38
2023-09-08T15:58:59.085Z,2.72
2023-09-08T16:09:05.895Z,2.40
2023-09-08T16:14:09.178Z,2.75
2023-09-08T16:19:11.165Z,2.50
2023-09-08T16:24:13.289Z,2.75
2023-09-08T16:29:15.292Z,2.53
2023-09-08T16:34:17.297Z,2.80
2023-09-08T16:39:19.516Z,2.63
2023-09-08T16:44:21.530Z,2.85
2023-09-08T16:49:23.523Z,2.67
2023-09-08T16:54:25.465Z,2.70
2023-09-08T16:59:27.480Z,3.15
2023-09-08T17:04:29.735Z,3.05
2023-09-08T17:14:34.775Z,2.85
2023-09-08T17:19:36.840Z,3.30
2023-09-08T17:24:38.918Z,2.90
2023-09-08T17:29:40.908Z,2.88
2023-09-08T17:34:42.931Z,3.15
2023-09-08T17:39:44.961Z,3.15
2023-09-08T17:44:47.115Z,3.80
2023-09-08T17:49:49.343Z,3.58
2023-09-08T17:54:51.415Z,3.33
2023-09-08T17:59:53.489Z,3.22
2023-09-08T18:04:55.750Z,3.17
2023-09-08T18:09:57.864Z,2.70
2023-09-08T18:15:00.003Z,2.80
2023-09-08T18:20:02.074Z,2.47
2023-09-08T18:25:06.834Z,2.72
2023-09-08T18:30:09.420Z,2.70
2023-09-08T18:40:13.874Z,2.40
2023-09-08T18:50:17.989Z,2.50
2023-09-08T18:55:19.990Z,2.13
2023-09-08T19:00:22.006Z,3.05
2023-09-08T19:05:24.247Z,2.45
2023-09-08T19:10:26.389Z,2.50
2023-09-08T19:15:28.383Z,1.80
2023-09-08T19:20:30.709Z,2.30
2023-09-08T19:30:34.593Z,1.85
2023-09-08T19:35:36.724Z,2.00
2023-09-08T19:40:38.696Z,1.70
2023-09-08T19:45:40.706Z,1.70
2023-09-08T19:50:45.082Z,1.70
2023-09-08T19:55:47.133Z,1.50
2023-09-08T20:00:49.617Z,1.30
2023-09-08T20:10:53.833Z,1.60
2023-09-08T20:16:00.419Z,1.48
2023-09-08T20:21:02.876Z,1.48
2023-09-08T20:26:05.353Z,1.52
2023-09-08T20:31:16.229Z,1.20
2023-09-08T20:36:19.656Z,1.30
2023-09-08T20:41:21.813Z,1.20
2023-09-08T20:46:23.901Z,1.23
2023-09-08T20:51:25.947Z,1.20
2023-09-08T20:56:28.056Z,1.20
2023-09-08T21:01:30.154Z,1.02
2023-09-08T21:06:32.259Z,1.38
2023-09-08T21:11:34.378Z,1.48
2023-09-08T21:16:36.386Z,1.10
2023-09-08T21:21:38.497Z,1.30
2023-09-08T21:26:40.606Z,1.30
2023-09-08T21:31:42.580Z,1.17
2023-09-08T21:36:44.823Z,1.10
2023-09-08T21:41:46.894Z,1.08
2023-09-08T21:46:49.024Z,1.05
2023-09-08T21:51:51.113Z,1.10
2023-09-08T21:56:53.466Z,1.10
2023-09-08T22:01:55.759Z,1.65
2023-09-08T22:06:57.882Z,1.50
2023-09-08T22:11:59.988Z,1.30
2023-09-08T22:17:02.208Z,1.25
2023-09-08T22:22:04.502Z,1.23
2023-09-08T22:27:07.332Z,1.10
2023-09-08T22:32:09.363Z,1.10
2023-09-08T22:37:11.278Z,0.93
2023-09-08T22:42:13.427Z,1.10
2023-09-08T22:47:15.397Z,1.10
2023-09-08T22:52:17.510Z,1.30
2023-09-08T22:57:19.624Z,1.30
2023-09-08T23:02:21.808Z,1.20
2023-09-08T23:07:24.062Z,1.02
2023-09-08T23:12:26.078Z,0.98
2023-09-08T23:17:28.237Z,1.00
2023-09-08T23:22:30.330Z,1.10
2023-09-08T23:27:32.445Z,1.02
2023-09-08T23:32:34.603Z,1.10
2023-09-08T23:37:36.859Z,1.08
2023-09-08T23:42:39.604Z,1.20
2023-09-08T23:47:41.663Z,1.20
2023-09-08T23:52:43.709Z,1.17
2023-09-08T23:57:45.750Z,1.20
